• Join FlightAware (Why Join?)
  • Login
  • US Flag 
04:06AM EDT


 

Airport Tracker/Info


-or-


 

Live Flight TrackerFlight Track Log ✈ EJA829P ✈ 01-Apr-2014 ✈ KHPN - KCMH

Flight Track Log - Related Links

Times and Time Zones

All times are in EDT time to prevent confusion due to time zone crossing. See the EJA829P flight status page for this flight to view local times or setup timezone preferences in your user account.

Time Position Orientation Groundspeed Altitude Reporting Facility
EDT Latitude Longitude Course Direction KTS MPH feet Rate Location/Type
07:48AM 41.0833 -73.7500 253° West 190 219 3,000  Level New York TRACON
07:49AM 41.0667 -73.8333 255° West 261 300 5,800 3,420 Climbing New York TRACON
07:50AM 41.0167 -73.9167 232° Southwest 289 333 9,900 3,840 Climbing New York TRACON
07:51AM 40.9667 -74.0000 232° Southwest 307 353 13,500 2,520 Climbing New York TRACON
07:52AM 40.9500 -74.1167 259° West 326 375 15,000 900 Climbing New York TRACON
07:53AM 40.9333 -74.2333 259° West 344 396 15,300 960 Climbing New York TRACON
07:54AM 40.9278 -74.3853 253° West  Level FlightAware Approximate
07:54AM 40.9167 -74.3500 259° West 331 381 17,000  Level New York TRACON
07:55AM 40.8903 -74.4986 257° West 355 409 17,100  Climbing New York Center
07:56AM 40.8761 -74.6131 261° West 353 406 17,100 240 Level New York Center
07:57AM 40.8569 -74.7519 260° West 353 406 17,600 840 Climbing New York Center
07:58AM 40.8411 -74.8525 258° West 353 406 18,800 1,560 Climbing New York Center
07:59AM 40.8214 -74.9939 260° West 353 406 20,800 1,800 Climbing New York Center
08:00AM 40.8044 -75.1189 260° West 353 406 22,500 1,800 Climbing New York Center
08:01AM 40.7825 -75.2628 259° West 358 412 24,500 1,920 Climbing New York Center
08:02AM 40.7589 -75.3900 256° West 358 412 26,400 1,680 Climbing New York Center
08:03AM 40.7256 -75.4944 247° West 353 406 27,900 1,320 Climbing New York Center
08:04AM 40.6811 -75.6147 244° Southwest 359 413 29,100 1,320 Climbing New York Center
08:05AM 40.6342 -75.7400 244° Southwest 371 427 30,600 1,500 Climbing New York Center
08:06AM 40.5894 -75.8597 244° Southwest 381 438 32,100 1,560 Climbing New York Center
08:07AM 40.5311 -76.0000 241° Southwest 387 445 33,800 900 Climbing New York Center
08:08AM 40.4933 -76.1036 244° Southwest 387 445 34,000 60 Climbing New York Center
08:09AM 40.4322 -76.2544 242° Southwest 392 451 34,000  Level New York Center
08:10AM 40.3844 -76.3814 244° Southwest 397 457 34,000  Level New York Center
08:11AM 40.3369 -76.5056 243° Southwest 390 449 34,000  Level New York Center
08:12AM 40.2894 -76.6242 242° Southwest 384 442 34,000  Level New York Center
08:13AM 40.2392 -76.7506 243° Southwest 384 442 34,000  Level New York Center
08:14AM 40.2200 -76.8819 259° West 378 435 34,000  Level New York Center
08:15AM 40.2161 -76.9931 267° West 375 432 34,000  Level New York Center
08:16AM 40.2100 -77.1503 267° West 375 432 34,000  Level New York Center
08:19AM 40.1994 -77.4417 267° West 373 429 34,000  Level Cleveland Center
08:20AM 40.1939 -77.5736 267° West 371 427 34,000  Level Cleveland Center
08:21AM 40.1892 -77.7072 267° West 370 426 34,000  Level Cleveland Center
08:22AM 40.1833 -77.8394 267° West 369 425 34,000  Level Cleveland Center
08:23AM 40.1767 -77.9714 266° West 368 423 34,000  Level Cleveland Center
08:24AM 40.1714 -78.1039 267° West 368 423 34,000  Level Cleveland Center
08:25AM 40.1644 -78.2614 267° West 367 422 34,000  Level Cleveland Center
08:26AM 40.1586 -78.3925 267° West 367 422 34,000 -240 Level Cleveland Center
08:27AM 40.1517 -78.5247 266° West 367 422 33,600 -1,140 Descending Cleveland Center
08:28AM 40.1453 -78.6594 266° West 367 422 31,700 -1,800 Descending Cleveland Center
08:29AM 40.1383 -78.7950 266° West 369 425 30,000 -840 Descending Cleveland Center
08:30AM 40.1308 -78.9319 266° West 373 429 30,000  Level Cleveland Center
08:31AM 40.1217 -79.1017 266° West 385 443 30,000  Level Cleveland Center
08:32AM 40.1153 -79.2403 267° West 385 443 30,000  Level Cleveland Center
08:33AM 40.1061 -79.3828 265° West 385 443 30,000  Level Cleveland Center
08:34AM 40.0992 -79.5214 266° West 384 442 30,000  Level Cleveland Center
08:35AM 40.0911 -79.6625 266° West 386 444 30,000  Level Cleveland Center
08:36AM 40.0814 -79.8031 265° West 389 448 30,000  Level Cleveland Center
08:37AM 40.0736 -79.9425 266° West 387 445 30,000  Level Cleveland Center
08:38AM 40.0650 -80.0828 265° West 386 444 30,000  Level Cleveland Center
08:39AM 40.0558 -80.2222 265° West 385 443 30,000 -240 Level Cleveland Center
08:40AM 40.0447 -80.3908 265° West 384 442 29,600 -1,140 Descending Cleveland Center
08:41AM 40.0361 -80.5275 265° West 379 436 27,700 -1,860 Descending Cleveland Center
08:42AM 40.0264 -80.6631 265° West 377 434 25,800 -1,800 Descending Cleveland Center
08:43AM 40.0178 -80.7953 265° West 365 420 24,000 -1,380 Descending Cleveland Center
08:44AM 39.9964 -80.9225 258° West 363 418 23,000 -540 Descending Cleveland Center
08:45AM 39.9711 -81.0511 256° West 361 415 23,000  Level Cleveland Center
08:46AM 39.9464 -81.1778 256° West 361 415 23,000 -180 Level Cleveland Center
08:47AM 39.9217 -81.3028 256° West 360 414 22,700 -1,080 Descending Cleveland Center
08:48AM 39.8969 -81.4344 256° West 353 406 20,800 -1,860 Descending Cleveland Center
08:49AM 39.8742 -81.5500 256° West 333 383 19,000 -1,680 Descending Cleveland Center
08:50AM 39.8514 -81.6611 255° West 324 373 17,400 -1,800 Descending Cleveland Center
08:52AM 39.8250 -81.7908 255° West 314 361 15,400 -1,800 Descending Cleveland Center
08:53AM 39.8036 -81.8969 255° West 304 350 13,800 -1,680 Descending Cleveland Center
08:53AM 39.7925 -81.9567 256° West 294 338 12,800 -1,620 Descending Indianapolis Center
08:53AM 39.7828 -81.9961 252° West 290 334 12,300 -1,200 Descending Indianapolis Center
08:54AM 39.7764 -82.0372 259° West 292 336 11,700 -1,560 Descending Indianapolis Center
08:54AM 39.7644 -82.0858 252° West 281 323 10,900 -1,500 Descending Indianapolis Center
08:55AM 39.7753 -82.1339 286° West 275 316 10,200 -900 Descending Indianapolis Center
08:55AM 39.7875 -82.1817 288° West 279 321 10,000 -240 Descending Indianapolis Center
08:56AM 39.7989 -82.2314 287° West 278 320 10,000  Level Indianapolis Center
08:56AM 39.8100 -82.2803 286° West 285 328 10,000  Level Indianapolis Center
08:57AM 39.8217 -82.3303 287° West 283 326 10,000  Level Indianapolis Center
08:57AM 39.8306 -82.3786 283° West 285 328 10,000  Level Indianapolis Center
08:58AM 39.8428 -82.4281 288° West 283 326 10,000  Level Indianapolis Center
08:58AM 39.8533 -82.4775 286° West 283 326 10,000 -1,080 Level Indianapolis Center
08:59AM 39.8708 -82.5375 291° West 274 315 8,900 -1,740 Descending Indianapolis Center
09:00AM 39.8775 -82.5792 282° West 250 288 8,100 -1,800 Descending Indianapolis Center
09:00AM 39.8900 -82.6217 291° West 254 292 7,100 -1,800 Descending Indianapolis Center
09:00AM 39.8936 -82.6553 278° West 238 274 6,500 -1,140 Descending Indianapolis Center
09:01AM 39.9022 -82.7064 282° West 246 283 6,000 -540 Descending Indianapolis Center
09:01AM 39.9044 -82.7417 275° West 242 278 6,000  Level Indianapolis Center
09:02AM 39.9100 -82.7922 278° West 244 281 6,000  Level Indianapolis Center
09:03AM 39.9150 -82.8306 280° West 244 281 6,000  Level Indianapolis Center
09:03AM 39.9197 -82.8800 277° West 244 281 6,000 -240 Level Indianapolis Center
09:04AM 39.9217 -82.9161 274° West 236 272 5,800 -1,500 Descending Indianapolis Center
09:04AM 39.9303 -82.9758 281° West 235 270 4,500 -1,560 Descending Indianapolis Center
09:05AM 39.9347 -83.0000 283° West 194 223 4,100 -540 Descending Indianapolis Center
09:05AM 39.9425 -83.0397 284° West 203 234 4,000 -540 Descending Indianapolis Center
09:06AM 39.9633 -83.0539 332° Northwest 209 241 3,600 -1,200 Descending Indianapolis Center
09:06AM 40.0019 -83.0392 16° North 227 261 2,800 -1,020 Descending Indianapolis Center
09:07AM 40.0114 -83.0125 65° Northeast 237 273 2,600 -780 Descending Indianapolis Center
09:07AM 40.0081 -82.9708 96° East 209 241 2,000 -1,020 Descending Indianapolis Center
09:08AM 40.0044 -82.9514 104° East 152 175 1,600 -900 Descending Indianapolis Center
09:08AM 40.0036 -82.9208 92° East 170 196 1,100 -360 Descending Indianapolis Center
09:09AM 40.0000 -82.8847 97° East 157 181 1,000 -120 Descending Indianapolis Center